Svea, Minnesota
Current Conditions -  °F | °C
As of 7:34 PM on Tuesday 25 Nov 2014 (Local Time) from KOVL Reporting Station
Scattered Clouds Scattered Clouds  
Wind Chill: 17°   Ceiling: Unl
Heat Index: 27°   Visibility: 10mi
Dew Point: 16°   Wind: 10mph
Humidity: 64%   Direction: 130°SE
Pressure: 29.94"   Gusts: NA
Location:  44.9371°N, 95.0539°W
Report Text: KOVL 260134Z AUTO 13009KT 10SM SCT043 M03/M09 A2994 RMK AO2
Loading
Personal Weather Stations






























Interactive Weather Map New forecast layout! Learn more

10-Day Weather Forecast

Advertisements
Track Severe Weather on mobile